2006 SAOMAI (2006216N07151)


On this page: IBTrACS data - Map and Plots - Positions - Intensities - Original source data

Summary

Start Aug 4
End Aug 12
Basin WP
LMI 140 kt
Sources jtwc_wp
tokyo
cma
hko
In WMO? Yes
Previous storm 2006 MISSING (NI)
Previous in basin 2006 PRAPIROON (WP)
Concurrent storms 2006 PRAPIROON (WP)
2006 GILMA (EP)
2006 FABIO (EP)
2006 CHRIS (NA)
2006 MISSING (NI)
2006 SAOMAI (WP)
2006 MARIA (WP)
2006 BOPHA (WP)
2006 MISSING (NI)
2006 WUKONG (WP)
Next in basin 2006 MARIA (WP)
Next storm 2006 MARIA (WP)

top of page IBTrACS Data: File Access

top of page HURSAT Data: File Access

Image of storm

top of page Plots:

Map of storm track will not appear if FTP is down
Time series of cyclone Maximum Sustained Wind will not appear if FTP is down
Time series of cyclone Minimum Central Pressure will not appear if FTP is down

top of page Track Data:Position

jtwc_wp tokyo cma hko
Date Lat Lon Lat Lon Lat Lon Lat Lon
2006-08-04 00:00:00 7.0 151.3
2006-08-04 06:00:00 7.6 150.9
2006-08-04 12:00:00 8.2 150.3
2006-08-04 18:00:00 8.8 149.5
2006-08-05 00:00:00 9.8 148.6 10.0 148.5 10.0 148.5
2006-08-05 06:00:00 11.0 147.5 10.9 147.4 11.2 147.4 11.3 147.5
2006-08-05 12:00:00 12.2 146.5 11.7 146.5 12.0 146.5 11.7 146.7
2006-08-05 18:00:00 13.3 145.3 12.8 145.5 12.8 145.4 12.9 145.5
2006-08-06 00:00:00 14.4 144.1 14.0 144.2 14.0 144.2 14.2 144.2
2006-08-06 06:00:00 15.4 143.0 15.2 143.1 15.2 143.0 15.2 143.1
2006-08-06 12:00:00 16.3 141.8 16.4 141.6 16.4 141.6 16.4 141.8
2006-08-06 18:00:00 17.1 140.4 17.1 140.5 17.1 140.5 17.2 140.7
2006-08-07 00:00:00 17.9 139.2 17.9 139.5 17.9 139.5 18.0 139.5
2006-08-07 06:00:00 18.7 137.9 18.8 138.2 18.8 138.2 18.8 138.2
2006-08-07 12:00:00 19.5 136.6 19.5 136.7 19.6 136.7 19.6 136.7
2006-08-07 18:00:00 20.2 135.2 20.3 135.4 20.3 135.4 20.4 135.3
2006-08-08 00:00:00 21.0 133.8 20.9 134.0 20.9 134.1 21.0 134.0
2006-08-08 06:00:00 21.7 132.5 21.6 132.9 21.6 132.9 21.6 132.9
2006-08-08 12:00:00 22.4 131.2 22.4 131.4 22.4 131.5 22.4 131.4
2006-08-08 18:00:00 23.0 129.9 23.1 130.1 23.1 130.2 23.1 130.2
2006-08-09 00:00:00 23.7 128.4 23.9 128.4 23.9 128.5 23.9 128.5
2006-08-09 06:00:00 24.7 126.9 24.7 126.9 24.7 127.0 24.7 127.0
2006-08-09 12:00:00 25.3 125.3 25.4 125.3 25.4 125.3 25.4 125.3
2006-08-09 18:00:00 25.9 123.9 26.0 123.7 26.0 123.7 26.0 123.7
2006-08-10 00:00:00 26.4 122.5 26.5 122.5 26.5 122.5 26.5 122.5
jtwc_wp tokyo cma hko
2006-08-10 06:00:00 27.0 121.1 27.0 121.2 27.0 121.2 27.0 121.2
2006-08-10 12:00:00 27.2 119.9 27.2 120.0 27.2 120.0 27.2 120.0
2006-08-10 18:00:00 27.4 118.7 27.4 118.7 27.7 118.7 27.7 118.8
2006-08-11 00:00:00 27.7 117.4 28.2 117.3 28.2 117.6 28.2 117.5
2006-08-11 06:00:00 28.1 115.8 28.6 116.1 28.7 116.4 28.6 116.5
2006-08-11 12:00:00 28.5 115.0 29.5 114.7 29.6 115.5
2006-08-11 18:00:00 28.9 114.4 30.0 113.1 30.1 114.6
2006-08-12 00:00:00 29.5 113.9
2006-08-12 06:00:00 30.2 113.3

top of pageTrack Data:Intensity

jtwc_wp tokyo cma hko
Date Wind Pres Wind Pres Wind Pres Wind Pres
2006-08-04 00:00:00 15. 1006.
2006-08-04 06:00:00 20. 1004.
2006-08-04 12:00:00 20. 1004.
2006-08-04 18:00:00 25. 1002.
2006-08-05 00:00:00 30. 1000. 1004. 29. 1000.
2006-08-05 06:00:00 35. 997. 1000. 29. 1000. 30. 1000.
2006-08-05 12:00:00 35. 997. 35. 998. 35. 995. 35. 996.
2006-08-05 18:00:00 45. 991. 40. 996. 39. 995. 40. 992.
2006-08-06 00:00:00 45. 991. 40. 996. 39. 995. 40. 992.
2006-08-06 06:00:00 55. 984. 45. 992. 45. 990. 45. 988.
2006-08-06 12:00:00 65. 976. 45. 992. 45. 990. 50. 984.
2006-08-06 18:00:00 65. 976. 50. 985. 49. 990. 50. 984.
2006-08-07 00:00:00 75. 967. 60. 975. 58. 980. 60. 975.
2006-08-07 06:00:00 75. 967. 70. 970. 68. 970. 65. 970.
2006-08-07 12:00:00 75. 967. 75. 970. 68. 970. 65. 970.
2006-08-07 18:00:00 75. 967. 75. 965. 68. 970. 70. 965.
2006-08-08 00:00:00 75. 967. 80. 960. 68. 970. 75. 960.
2006-08-08 06:00:00 90. 954. 80. 960. 78. 960. 75. 960.
2006-08-08 12:00:00 90. 954. 85. 955. 78. 960. 75. 960.
2006-08-08 18:00:00 90. 954. 90. 950. 87. 950. 80. 955.
2006-08-09 00:00:00 105. 938. 95. 940. 87. 950. 85. 950.
2006-08-09 06:00:00 125. 916. 100. 930. 97. 940. 100. 935.
2006-08-09 12:00:00 140. 898. 105. 925. 117. 920. 115. 920.
2006-08-09 18:00:00 140. 898. 105. 925. 117. 915. 115. 920.
2006-08-10 00:00:00 140. 898. 100. 930. 117. 915. 115. 920.
jtwc_wp tokyo cma hko
2006-08-10 06:00:00 130. 910. 100. 935. 117. 920. 110. 925.
2006-08-10 12:00:00 115. 927. 90. 950. 87. 950. 95. 940.
2006-08-10 18:00:00 75. 967. 50. 980. 45. 990. 55. 980.
2006-08-11 00:00:00 60. 980. 996. 35. 996. 35. 996.
2006-08-11 06:00:00 55. 984. 1000. 25. 1000. 25. 998.
2006-08-11 12:00:00 45. 991. 1002. 19. 1002.
2006-08-11 18:00:00 35. 997. 1002. 19. 1002.
2006-08-12 00:00:00 30. 1000.
2006-08-12 06:00:00 25. 1002.

top of page Links to source data

Source Source file Format
jtwc_wp bwp082006.txt ATCF
tokyo bst_all.txt:Line=55678:SAOMAI:608 JMA text table
cma CH2006BST.txt:Storm=10:Saomai CMA text table
hko tc-besttrack-data-current.txt:Line=32043:SAOMAI HKO Text table